B Gas Margrethe — 9HA4386 — position and weather

sailwx.info

Track history (hours):
 
Tides and Currents Weather Stations Pressure Air Temp Water Temp Dewpoint Dewpoint Depression Visibility Wind Speed Wind Dir Waves Ship Positions

B Gas Margrethe

Last reported at 2018-Apr-22 08:24 UTC. Time now 2018-Apr-22 08:48 UTC.
Position N 50°52' E 001°04'.

Length 100 m; draft 4.5 m.

Type: Ship (hazmat cat A). MMSI: 249810000.

Date/timePositionNaut miles runAvg speedWind from/ knotsBaromVisibWave heightAir tempDewpointWater temp
2018-Apr-22 08:24N 50°52' E 001°04'614.5
2018-Apr-22 07:58N 50°56' E 001°12'714.0
2018-Apr-22 07:28N 51°01' E 001°20'613.2
2018-Apr-22 07:00N 51°05' E 001°28'612.4
2018-Apr-22 06:30N 51°09' E 001°36'611.8
2018-Apr-22 06:01N 51°12' E 001°43'612.0
2018-Apr-22 05:31N 51°17' E 001°49'612.1
2018-Apr-22 05:00N 51°22' E 001°55'611.4
2018-Apr-22 04:30N 51°25' E 002°03'713.6
2018-Apr-22 04:00N 51°22' E 002°13'612.5
2018-Apr-22 03:31N 51°21' E 002°22'713.1
2018-Apr-22 03:00N 51°23' E 002°33'713.4
2018-Apr-22 02:30N 51°23' E 002°43'612.1
2018-Apr-22 02:00N 51°22' E 002°53'714.2
2018-Apr-22 01:30N 51°24' E 003°04'714.0
2018-Apr-22 01:00N 51°25' E 003°15'714.1
2018-Apr-22 00:30N 51°25' E 003°26'714.0
2018-Apr-22 00:01N 51°26' E 003°37'4 7.6
2018-Apr-21 23:30N 51°28' E 003°43'0 0.0
2018-Apr-21 22:59N 51°28' E 003°43'0 0.0
2018-Apr-21 22:30N 51°28' E 003°43'0 0.0
2018-Apr-21 22:00N 51°28' E 003°43'0 0.0
2018-Apr-20 23:52N 51°28' E 003°43'0 0.0
2018-Apr-20 23:30N 51°28' E 003°43'2 3.4
2018-Apr-20 23:01N 51°27' E 003°41'4 7.4
2018-Apr-20 22:31N 51°26' E 003°35'4 8.8
2018-Apr-20 22:01N 51°29' E 003°30'5 9.8
2018-Apr-20 21:30N 51°32' E 003°25'5 9.5
2018-Apr-20 21:00N 51°37' E 003°22'611.2
2018-Apr-20 20:30N 51°41' E 003°16'4 9.0
2018-Apr-20 20:00N 51°46' E 003°16'712.4
2018-Apr-20 19:27N 51°52' E 003°17'612.4
2018-Apr-20 19:00N 51°58' E 003°19'612.2
2018-Apr-20 18:30N 52°04' E 003°21'711.9
2018-Apr-20 17:56N 52°11' E 003°23'511.9
2018-Apr-20 17:31N 52°16' E 003°24'711.7
2018-Apr-20 16:53N 52°23' E 003°26'411.9
2018-Apr-20 16:30N 52°27' E 003°28'712.4
2018-Apr-20 15:58N 52°34' E 003°30'712.9
2018-Apr-20 15:24N 52°40' E 003°36'613.4
2018-Apr-20 14:56N 52°45' E 003°41'814.0
2018-Apr-20 14:22N 52°51' E 003°50'514.2
2018-Apr-20 13:59N 52°56' E 003°56'714.2
2018-Apr-20 13:30N 53°00' E 004°04'714.2
2018-Apr-20 13:00N 53°05' E 004°13'714.1
2018-Apr-20 12:30N 53°09' E 004°22'713.7
2018-Apr-20 12:00N 53°15' E 004°27'813.7
2018-Apr-20 11:26N 53°23' E 004°31'1812.9
2018-Apr-20 10:00N 53°40' E 004°42'12213.1
2018-Apr-20 00:41N 55°27' E 006°25'313.2
2018-Apr-20 00:30N 55°29' E 006°27'713.3
2018-Apr-19 23:58N 55°35' E 006°33'613.2
2018-Apr-19 23:30N 55°40' E 006°38'713.0
2018-Apr-19 22:58N 55°47' E 006°45'3113.1
2018-Apr-19 20:36N 56°14' E 007°12'113.3
2018-Apr-19 20:30N 56°15' E 007°13'1313.1
2018-Apr-19 19:30N 56°25' E 007°26'712.9
2018-Apr-19 19:00N 56°31' E 007°33'712.9
2018-Apr-19 18:29N 56°37' E 007°38'612.8
2018-Apr-19 17:59N 56°43' E 007°43'612.8
2018-Apr-19 17:30N 56°48' E 007°50'713.1
2018-Apr-19 16:59N 56°54' E 007°56'713.1
2018-Apr-19 16:29N 56°59' E 008°02'5012.9
2018-Apr-19 12:35N 57°30' E 009°15'213.0
2018-Apr-19 12:28N 57°31' E 009°17'613.0
2018-Apr-19 11:58N 57°35' E 009°27'713.0
2018-Apr-19 11:24N 57°39' E 009°38'512.9
2018-Apr-19 11:00N 57°43' E 009°45'813.1
2018-Apr-19 10:22N 57°48' E 009°58'513.0
2018-Apr-19 10:00N 57°50' E 010°05'713.0
2018-Apr-19 09:30N 57°54' E 010°15'712.9
2018-Apr-19 09:00N 57°58' E 010°25'612.9
2018-Apr-19 08:30N 58°02' E 010°34'713.0
2018-Apr-19 07:58N 58°06' E 010°46'613.6
2018-Apr-19 07:30N 58°09' E 010°56'713.4
2018-Apr-19 07:00N 58°13' E 011°06'612.1
2018-Apr-19 06:30N 58°16' E 011°15'510.3
2018-Apr-19 06:00N 58°20' E 011°23'2 0.1
2018-Apr-18 00:25N 58°21' E 011°26'2 3.9
2018-Apr-18 00:00N 58°20' E 011°24'2 3.0
2018-Apr-17 23:29N 58°20' E 011°21'0 0.0
2018-Apr-17 23:00N 58°20' E 011°21'0 0.0
2018-Apr-17 22:30N 58°20' E 011°21'0 0.0
2018-Apr-17 21:57N 58°20' E 011°21'0 0.0
2018-Apr-17 21:30N 58°20' E 011°21'0 0.0
2018-Apr-17 21:00N 58°20' E 011°21'0 0.0
2018-Apr-17 20:31N 58°20' E 011°21'0 0.0
2018-Apr-17 20:00N 58°20' E 011°21'0 0.0
2018-Apr-17 19:30N 58°20' E 011°21'0 0.0
2018-Apr-17 19:00N 58°20' E 011°21'0 0.0
2018-Apr-17 18:27N 58°20' E 011°21'0 0.0
2018-Apr-17 17:52N 58°20' E 011°21'0 0.0
2018-Apr-17 17:30N 58°20' E 011°21'0 0.0
2018-Apr-17 17:00N 58°20' E 011°21'0 0.0
2018-Apr-17 16:30N 58°20' E 011°21'0 0.0
2018-Apr-17 15:59N 58°20' E 011°21'0 0.0
2018-Apr-17 15:30N 58°20' E 011°21'0 0.0
2018-Apr-17 15:00N 58°20' E 011°21'0 0.0
2018-Apr-17 14:30N 58°20' E 011°21'0 0.0
2018-Apr-17 14:00N 58°20' E 011°21'0 0.0
2018-Apr-17 13:30N 58°20' E 011°21'0 0.1
2018-Apr-17 13:00N 58°20' E 011°21'0 0.0
2018-Apr-17 12:30N 58°20' E 011°21'0 0.0
2018-Apr-17 11:59N 58°20' E 011°21'0 0.0
2018-Apr-17 11:30N 58°20' E 011°21'0 0.0
2018-Apr-17 11:00N 58°20' E 011°21'0 0.0
2018-Apr-17 10:30N 58°20' E 011°21'0 0.0
2018-Apr-17 10:00N 58°20' E 011°21'0 0.1
2018-Apr-17 09:30N 58°20' E 011°21'0 0.0
2018-Apr-17 09:00N 58°20' E 011°21'0 0.0
2018-Apr-17 08:30N 58°20' E 011°21'0 0.0
2018-Apr-17 08:00N 58°20' E 011°21'0 0.0
2018-Apr-17 07:26N 58°20' E 011°21'0 0.1
2018-Apr-17 07:00N 58°20' E 011°21'0 0.1
2018-Apr-17 06:29N 58°20' E 011°21'0 0.0
2018-Apr-17 06:00N 58°20' E 011°21'0 0.1
2018-Apr-17 05:30N 58°20' E 011°21'0 0.0
2018-Apr-17 05:01N 58°20' E 011°21'0 0.0
2018-Apr-17 04:30N 58°20' E 011°21'0 0.0
2018-Apr-17 04:00N 58°20' E 011°21'0 0.0
2018-Apr-17 03:30N 58°20' E 011°21'0 0.1
2018-Apr-17 03:00N 58°20' E 011°21'0 0.1
2018-Apr-17 02:30N 58°20' E 011°21'0 0.1
2018-Apr-17 02:00N 58°20' E 011°21'0 0.0
2018-Apr-17 01:30N 58°20' E 011°21'0 0.0
2018-Apr-17 01:00N 58°20' E 011°21'0 0.0
2018-Apr-17 00:30N 58°20' E 011°21'0 0.1
2018-Apr-17 00:00N 58°20' E 011°21'4 7.4
2018-Apr-16 23:30N 58°17' E 011°17'611.3
2018-Apr-16 23:00N 58°14' E 011°08'714.0
2018-Apr-16 22:30N 58°10' E 010°57'713.9
2018-Apr-16 22:00N 58°06' E 010°46'713.7
2018-Apr-16 21:30N 58°02' E 010°35'813.8
2018-Apr-16 20:55N 57°57' E 010°23'614.0
2018-Apr-16 20:28N 57°54' E 010°13'30113.1
2018-Apr-15 21:24N 53°50' E 004°58'613.6
2018-Apr-15 21:00N 53°45' E 004°56'713.8
2018-Apr-15 20:30N 53°39' E 004°50'713.6
2018-Apr-15 20:00N 53°32' E 004°46'713.7
2018-Apr-15 19:30N 53°26' E 004°42'714.2
2018-Apr-15 18:59N 53°19' E 004°37'714.5
2018-Apr-15 18:29N 53°13' E 004°33'714.2
2018-Apr-15 17:59N 53°06' E 004°27'714.1
2018-Apr-15 17:30N 53°00' E 004°21'814.5
2018-Apr-15 16:59N 52°54' E 004°15'714.5
2018-Apr-15 16:29N 52°48' E 004°09'714.4
2018-Apr-15 16:00N 52°43' E 004°02'714.5
2018-Apr-15 15:30N 52°37' E 003°53'714.4
2018-Apr-15 15:00N 52°32' E 003°46'714.7
2018-Apr-15 14:30N 52°27' E 003°37'814.9
2018-Apr-15 13:59N 52°21' E 003°28'815.0
2018-Apr-15 13:29N 52°16' E 003°19'2614.6
2018-Apr-15 11:43N 51°57' E 002°52'713.8
2018-Apr-15 11:13N 51°51' E 002°44'313.6
2018-Apr-15 11:00N 51°49' E 002°41'913.2
2018-Apr-15 10:21N 51°42' E 002°32'512.8
2018-Apr-15 10:00N 51°39' E 002°28'612.6
2018-Apr-15 09:30N 51°34' E 002°21'612.1
2018-Apr-15 09:00N 51°29' E 002°15'611.4
2018-Apr-15 08:30N 51°25' E 002°09'611.3
2018-Apr-15 08:00N 51°20' E 002°07'611.3
2018-Apr-15 07:30N 51°14' E 002°04'510.9
2018-Apr-15 07:00N 51°11' E 001°57'510.9
2018-Apr-15 06:30N 51°09' E 001°49'510.9
2018-Apr-15 06:00N 51°05' E 001°43'510.8
2018-Apr-15 05:30N 51°01' E 001°37'1311.2
2018-Apr-15 04:20N 50°51' E 001°24'2012.1
2018-Apr-15 02:40N 50°34' E 001°06'612.6
2018-Apr-15 02:12N 50°30' E 000°60'612.3
2018-Apr-15 01:42N 50°27' E 000°51'2212.3
2018-Apr-14 23:56N 50°21' E 000°18'512.4
2018-Apr-14 23:30N 50°19' E 000°11'911.7
2018-Apr-14 22:44N 50°13' E 000°00'313.7
2018-Apr-14 22:30N 50°10' W 000°01'714.0
2018-Apr-14 22:00N 50°03' W 000°03'714.3
2018-Apr-14 21:30N 49°56' W 000°06'714.6
2018-Apr-14 21:00N 49°49' W 000°08'714.2
2018-Apr-14 20:30N 49°42' W 000°09'714.2
2018-Apr-14 20:00N 49°35' W 000°10'510.6
2018-Apr-14 19:30N 49°31' W 000°04'611.9
2018-Apr-14 19:00N 49°29' E 000°04'4 7.5
2018-Apr-14 18:29N 49°29' E 000°10'0 0.0
2018-Apr-14 17:59N 49°29' E 000°10'1 2.3
2018-Apr-14 17:28N 49°29' E 000°12'0 0.0
2018-Apr-14 17:00N 49°29' E 000°12'0 0.0
2018-Apr-14 16:31N 49°29' E 000°12'0 0.0
2018-Apr-14 16:01N 49°29' E 000°12'0 0.0
2018-Apr-14 15:31N 49°29' E 000°12'0 0.0
2018-Apr-14 15:01N 49°29' E 000°12'0 0.0
2018-Apr-14 14:30N 49°29' E 000°12'0 0.0
2018-Apr-14 14:01N 49°29' E 000°12'0 0.0
2018-Apr-14 13:31N 49°29' E 000°12'0 0.0
2018-Apr-14 13:01N 49°29' E 000°12'0 0.0
2018-Apr-14 12:30N 49°29' E 000°12'0 0.0
2018-Apr-14 12:00N 49°29' E 000°12'0 0.0
2018-Apr-14 11:31N 49°29' E 000°12'0 0.0
2018-Apr-14 11:01N 49°29' E 000°12'0 0.0
2018-Apr-14 10:31N 49°29' E 000°12'0 0.0
2018-Apr-14 10:01N 49°29' E 000°12'0 0.0
2018-Apr-14 09:31N 49°29' E 000°12'0 0.0
2018-Apr-14 09:01N 49°29' E 000°12'0 0.0
2018-Apr-14 08:31N 49°29' E 000°12'0 0.0
2018-Apr-14 08:01N 49°29' E 000°12'0 0.0
2018-Apr-14 07:30N 49°29' E 000°12'0 0.0
2018-Apr-14 07:01N 49°29' E 000°12'0 0.0
2018-Apr-14 06:30N 49°29' E 000°12'0 0.0
2018-Apr-14 06:01N 49°29' E 000°12'0 0.0
2018-Apr-14 05:30N 49°29' E 000°12'0 0.0
2018-Apr-14 05:01N 49°29' E 000°12'0 0.0
2018-Apr-14 04:31N 49°29' E 000°12'0 0.0
2018-Apr-14 04:01N 49°29' E 000°12'0 0.0
2018-Apr-14 03:31N 49°29' E 000°12'0 0.0
2018-Apr-14 03:01N 49°29' E 000°12'0 0.0
2018-Apr-14 02:31N 49°29' E 000°12'0 0.0
2018-Apr-14 02:00N 49°29' E 000°12'0 0.0
2018-Apr-14 01:30N 49°29' E 000°12'0 0.0
2018-Apr-14 01:01N 49°29' E 000°12'0 0.0
2018-Apr-14 00:31N 49°29' E 000°12'0 0.0
2018-Apr-14 00:00N 49°29' E 000°12'0 0.0
2018-Apr-13 23:30N 49°29' E 000°12'0 0.0
2018-Apr-13 23:00N 49°29' E 000°12'0 0.0
2018-Apr-13 22:31N 49°29' E 000°12'0 0.0
2018-Apr-13 22:01N 49°29' E 000°12'1 2.1
2018-Apr-13 21:31N 49°29' E 000°11'1 1.3
2018-Apr-13 21:01N 49°28' E 000°10'4 8.8
2018-Apr-13 20:30N 49°30' E 000°03'510.3
2018-Apr-13 20:01N 49°31' W 000°04'5 9.9
2018-Apr-13 19:31N 49°33' W 000°12'4 8.2
2018-Apr-13 19:00N 49°34' W 000°17'5 9.2
2018-Apr-13 18:30N 49°36' W 000°24'611.9
2018-Apr-13 18:00N 49°38' W 000°33'611.7
2018-Apr-13 17:31N 49°40' W 000°41'5 9.8
2018-Apr-13 17:01N 49°42' W 000°48'1212.1
2018-Apr-13 16:00N 49°49' W 001°04'713.9
2018-Apr-13 15:30N 49°50' W 001°14'713.1
2018-Apr-13 15:00N 49°51' W 001°24'611.9
2018-Apr-13 14:30N 49°51' W 001°33'1211.5
2018-Apr-13 13:30N 49°52' W 001°51'510.5
2018-Apr-13 13:00N 49°52' W 001°59'510.4
2018-Apr-13 12:29N 49°53' W 002°08'2611.1
2018-Apr-13 10:08N 49°49' W 002°48'212.4
2018-Apr-13 10:00N 49°48' W 002°50'1012.7
2018-Apr-13 09:11N 49°44' W 003°05'512.9
2018-Apr-13 08:50N 49°41' W 003°11'8613.6
2018-Apr-13 02:33N 48°59' W 005°05'114.3
2018-Apr-13 02:30N 48°59' W 005°06'1714.5
2018-Apr-13 01:21N 48°49' W 005°27'514.5
2018-Apr-13 01:00N 48°47' W 005°33'3212.9
2018-Apr-12 22:33N 48°15' W 005°38'2913.5
2018-Apr-12 20:25N 47°55' W 005°06'613.6
2018-Apr-12 20:00N 47°52' W 005°00'913.0
2018-Apr-12 19:19N 47°46' W 004°49'3113.2
2018-Apr-12 16:56N 47°31' W 004°09'613.2
2018-Apr-12 16:30N 47°28' W 004°02'713.1
2018-Apr-12 15:56N 47°24' W 003°52'613.1
2018-Apr-12 15:30N 47°21' W 003°45'713.1
2018-Apr-12 15:00N 47°18' W 003°37'713.1
2018-Apr-12 14:30N 47°15' W 003°28'613.0
2018-Apr-12 14:01N 47°12' W 003°20'612.9
2018-Apr-12 13:30N 47°10' W 003°11'712.9
2018-Apr-12 13:00N 47°09' W 003°01'712.8
2018-Apr-12 12:29N 47°07' W 002°52'612.2
2018-Apr-12 12:00N 47°04' W 002°44'511.1
2018-Apr-12 11:31N 47°03' W 002°37'612.2
2018-Apr-12 11:01N 47°04' W 002°28'510.2
2018-Apr-12 10:30N 47°08' W 002°22'610.7
2018-Apr-12 09:54N 47°13' W 002°17'411.1
2018-Apr-12 09:30N 47°16' W 002°12'510.1
2018-Apr-12 09:00N 47°18' W 002°05'  
Track history (hours):
 
Tides and Currents Weather Stations Pressure Air Temp Water Temp Dewpoint Dewpoint Depression Visibility Wind Speed Wind Dir Waves Ship Positions

B Gas Margrethe

Last reported at 2018-Apr-22 08:24 UTC. Time now 2018-Apr-22 08:48 UTC.
Position N 50°52' E 001°04'.

Length 100 m; draft 4.5 m.

Type: Ship (hazmat cat A). MMSI: 249810000.

Date/timePositionNaut miles runAvg speedWind from/ knotsBaromVisibWave heightAir tempDewpointWater temp
2018-Apr-22 08:24N 50°52' E 001°04'614.5
2018-Apr-22 07:58N 50°56' E 001°12'714.0
2018-Apr-22 07:28N 51°01' E 001°20'613.2
2018-Apr-22 07:00N 51°05' E 001°28'612.4
2018-Apr-22 06:30N 51°09' E 001°36'611.8
2018-Apr-22 06:01N 51°12' E 001°43'612.0
2018-Apr-22 05:31N 51°17' E 001°49'612.1
2018-Apr-22 05:00N 51°22' E 001°55'611.4
2018-Apr-22 04:30N 51°25' E 002°03'713.6
2018-Apr-22 04:00N 51°22' E 002°13'612.5
2018-Apr-22 03:31N 51°21' E 002°22'713.1
2018-Apr-22 03:00N 51°23' E 002°33'713.4
2018-Apr-22 02:30N 51°23' E 002°43'612.1
2018-Apr-22 02:00N 51°22' E 002°53'714.2
2018-Apr-22 01:30N 51°24' E 003°04'714.0
2018-Apr-22 01:00N 51°25' E 003°15'714.1
2018-Apr-22 00:30N 51°25' E 003°26'714.0
2018-Apr-22 00:01N 51°26' E 003°37'4 7.6
2018-Apr-21 23:30N 51°28' E 003°43'0 0.0
2018-Apr-21 22:59N 51°28' E 003°43'0 0.0
2018-Apr-21 22:30N 51°28' E 003°43'0 0.0
2018-Apr-21 22:00N 51°28' E 003°43'0 0.0
2018-Apr-20 23:52N 51°28' E 003°43'0 0.0
2018-Apr-20 23:30N 51°28' E 003°43'2 3.4
2018-Apr-20 23:01N 51°27' E 003°41'4 7.4
2018-Apr-20 22:31N 51°26' E 003°35'4 8.8
2018-Apr-20 22:01N 51°29' E 003°30'5 9.8
2018-Apr-20 21:30N 51°32' E 003°25'5 9.5
2018-Apr-20 21:00N 51°37' E 003°22'611.2
2018-Apr-20 20:30N 51°41' E 003°16'4 9.0
2018-Apr-20 20:00N 51°46' E 003°16'712.4
2018-Apr-20 19:27N 51°52' E 003°17'612.4
2018-Apr-20 19:00N 51°58' E 003°19'612.2
2018-Apr-20 18:30N 52°04' E 003°21'711.9
2018-Apr-20 17:56N 52°11' E 003°23'511.9
2018-Apr-20 17:31N 52°16' E 003°24'711.7
2018-Apr-20 16:53N 52°23' E 003°26'411.9
2018-Apr-20 16:30N 52°27' E 003°28'712.4
2018-Apr-20 15:58N 52°34' E 003°30'712.9
2018-Apr-20 15:24N 52°40' E 003°36'613.4
2018-Apr-20 14:56N 52°45' E 003°41'814.0
2018-Apr-20 14:22N 52°51' E 003°50'514.2
2018-Apr-20 13:59N 52°56' E 003°56'714.2
2018-Apr-20 13:30N 53°00' E 004°04'714.2
2018-Apr-20 13:00N 53°05' E 004°13'714.1
2018-Apr-20 12:30N 53°09' E 004°22'713.7
2018-Apr-20 12:00N 53°15' E 004°27'813.7
2018-Apr-20 11:26N 53°23' E 004°31'1812.9
2018-Apr-20 10:00N 53°40' E 004°42'12213.1
2018-Apr-20 00:41N 55°27' E 006°25'313.2
2018-Apr-20 00:30N 55°29' E 006°27'713.3
2018-Apr-19 23:58N 55°35' E 006°33'613.2
2018-Apr-19 23:30N 55°40' E 006°38'713.0
2018-Apr-19 22:58N 55°47' E 006°45'3113.1
2018-Apr-19 20:36N 56°14' E 007°12'113.3
2018-Apr-19 20:30N 56°15' E 007°13'1313.1
2018-Apr-19 19:30N 56°25' E 007°26'712.9
2018-Apr-19 19:00N 56°31' E 007°33'712.9
2018-Apr-19 18:29N 56°37' E 007°38'612.8
2018-Apr-19 17:59N 56°43' E 007°43'612.8
2018-Apr-19 17:30N 56°48' E 007°50'713.1
2018-Apr-19 16:59N 56°54' E 007°56'713.1
2018-Apr-19 16:29N 56°59' E 008°02'5012.9
2018-Apr-19 12:35N 57°30' E 009°15'213.0
2018-Apr-19 12:28N 57°31' E 009°17'613.0
2018-Apr-19 11:58N 57°35' E 009°27'713.0
2018-Apr-19 11:24N 57°39' E 009°38'512.9
2018-Apr-19 11:00N 57°43' E 009°45'813.1
2018-Apr-19 10:22N 57°48' E 009°58'513.0
2018-Apr-19 10:00N 57°50' E 010°05'713.0
2018-Apr-19 09:30N 57°54' E 010°15'712.9
2018-Apr-19 09:00N 57°58' E 010°25'612.9
2018-Apr-19 08:30N 58°02' E 010°34'713.0
2018-Apr-19 07:58N 58°06' E 010°46'613.6
2018-Apr-19 07:30N 58°09' E 010°56'713.4
2018-Apr-19 07:00N 58°13' E 011°06'612.1
2018-Apr-19 06:30N 58°16' E 011°15'510.3
2018-Apr-19 06:00N 58°20' E 011°23'2 0.1
2018-Apr-18 00:25N 58°21' E 011°26'2 3.9
2018-Apr-18 00:00N 58°20' E 011°24'2 3.0
2018-Apr-17 23:29N 58°20' E 011°21'0 0.0
2018-Apr-17 23:00N 58°20' E 011°21'0 0.0
2018-Apr-17 22:30N 58°20' E 011°21'0 0.0
2018-Apr-17 21:57N 58°20' E 011°21'0 0.0
2018-Apr-17 21:30N 58°20' E 011°21'0 0.0
2018-Apr-17 21:00N 58°20' E 011°21'0 0.0
2018-Apr-17 20:31N 58°20' E 011°21'0 0.0
2018-Apr-17 20:00N 58°20' E 011°21'0 0.0
2018-Apr-17 19:30N 58°20' E 011°21'0 0.0
2018-Apr-17 19:00N 58°20' E 011°21'0 0.0
2018-Apr-17 18:27N 58°20' E 011°21'0 0.0
2018-Apr-17 17:52N 58°20' E 011°21'0 0.0
2018-Apr-17 17:30N 58°20' E 011°21'0 0.0
2018-Apr-17 17:00N 58°20' E 011°21'0 0.0
2018-Apr-17 16:30N 58°20' E 011°21'0 0.0
2018-Apr-17 15:59N 58°20' E 011°21'0 0.0
2018-Apr-17 15:30N 58°20' E 011°21'0 0.0
2018-Apr-17 15:00N 58°20' E 011°21'0 0.0
2018-Apr-17 14:30N 58°20' E 011°21'0 0.0
2018-Apr-17 14:00N 58°20' E 011°21'0 0.0
2018-Apr-17 13:30N 58°20' E 011°21'0 0.1
2018-Apr-17 13:00N 58°20' E 011°21'0 0.0
2018-Apr-17 12:30N 58°20' E 011°21'0 0.0
2018-Apr-17 11:59N 58°20' E 011°21'0 0.0
2018-Apr-17 11:30N 58°20' E 011°21'0 0.0
2018-Apr-17 11:00N 58°20' E 011°21'0 0.0
2018-Apr-17 10:30N 58°20' E 011°21'0 0.0
2018-Apr-17 10:00N 58°20' E 011°21'0 0.1
2018-Apr-17 09:30N 58°20' E 011°21'0 0.0
2018-Apr-17 09:00N 58°20' E 011°21'0 0.0
2018-Apr-17 08:30N 58°20' E 011°21'0 0.0
2018-Apr-17 08:00N 58°20' E 011°21'0 0.0
2018-Apr-17 07:26N 58°20' E 011°21'0 0.1
2018-Apr-17 07:00N 58°20' E 011°21'0 0.1
2018-Apr-17 06:29N 58°20' E 011°21'0 0.0
2018-Apr-17 06:00N 58°20' E 011°21'0 0.1
2018-Apr-17 05:30N 58°20' E 011°21'0 0.0
2018-Apr-17 05:01N 58°20' E 011°21'0 0.0
2018-Apr-17 04:30N 58°20' E 011°21'0 0.0
2018-Apr-17 04:00N 58°20' E 011°21'0 0.0
2018-Apr-17 03:30N 58°20' E 011°21'0 0.1
2018-Apr-17 03:00N 58°20' E 011°21'0 0.1
2018-Apr-17 02:30N 58°20' E 011°21'0 0.1
2018-Apr-17 02:00N 58°20' E 011°21'0 0.0
2018-Apr-17 01:30N 58°20' E 011°21'0 0.0
2018-Apr-17 01:00N 58°20' E 011°21'0 0.0
2018-Apr-17 00:30N 58°20' E 011°21'0 0.1
2018-Apr-17 00:00N 58°20' E 011°21'4 7.4
2018-Apr-16 23:30N 58°17' E 011°17'611.3
2018-Apr-16 23:00N 58°14' E 011°08'714.0
2018-Apr-16 22:30N 58°10' E 010°57'713.9
2018-Apr-16 22:00N 58°06' E 010°46'713.7
2018-Apr-16 21:30N 58°02' E 010°35'813.8
2018-Apr-16 20:55N 57°57' E 010°23'614.0
2018-Apr-16 20:28N 57°54' E 010°13'30113.1
2018-Apr-15 21:24N 53°50' E 004°58'613.6
2018-Apr-15 21:00N 53°45' E 004°56'713.8
2018-Apr-15 20:30N 53°39' E 004°50'713.6
2018-Apr-15 20:00N 53°32' E 004°46'713.7
2018-Apr-15 19:30N 53°26' E 004°42'714.2
2018-Apr-15 18:59N 53°19' E 004°37'714.5
2018-Apr-15 18:29N 53°13' E 004°33'714.2
2018-Apr-15 17:59N 53°06' E 004°27'714.1
2018-Apr-15 17:30N 53°00' E 004°21'814.5
2018-Apr-15 16:59N 52°54' E 004°15'714.5
2018-Apr-15 16:29N 52°48' E 004°09'714.4
2018-Apr-15 16:00N 52°43' E 004°02'714.5
2018-Apr-15 15:30N 52°37' E 003°53'714.4
2018-Apr-15 15:00N 52°32' E 003°46'714.7
2018-Apr-15 14:30N 52°27' E 003°37'814.9
2018-Apr-15 13:59N 52°21' E 003°28'815.0
2018-Apr-15 13:29N 52°16' E 003°19'2614.6
2018-Apr-15 11:43N 51°57' E 002°52'713.8
2018-Apr-15 11:13N 51°51' E 002°44'313.6
2018-Apr-15 11:00N 51°49' E 002°41'913.2
2018-Apr-15 10:21N 51°42' E 002°32'512.8
2018-Apr-15 10:00N 51°39' E 002°28'612.6
2018-Apr-15 09:30N 51°34' E 002°21'612.1
2018-Apr-15 09:00N 51°29' E 002°15'611.4
2018-Apr-15 08:30N 51°25' E 002°09'611.3
2018-Apr-15 08:00N 51°20' E 002°07'611.3
2018-Apr-15 07:30N 51°14' E 002°04'510.9
2018-Apr-15 07:00N 51°11' E 001°57'510.9
2018-Apr-15 06:30N 51°09' E 001°49'510.9
2018-Apr-15 06:00N 51°05' E 001°43'510.8
2018-Apr-15 05:30N 51°01' E 001°37'1311.2
2018-Apr-15 04:20N 50°51' E 001°24'2012.1
2018-Apr-15 02:40N 50°34' E 001°06'612.6
2018-Apr-15 02:12N 50°30' E 000°60'612.3
2018-Apr-15 01:42N 50°27' E 000°51'2212.3
2018-Apr-14 23:56N 50°21' E 000°18'512.4
2018-Apr-14 23:30N 50°19' E 000°11'911.7
2018-Apr-14 22:44N 50°13' E 000°00'313.7
2018-Apr-14 22:30N 50°10' W 000°01'714.0
2018-Apr-14 22:00N 50°03' W 000°03'714.3
2018-Apr-14 21:30N 49°56' W 000°06'714.6
2018-Apr-14 21:00N 49°49' W 000°08'714.2
2018-Apr-14 20:30N 49°42' W 000°09'714.2
2018-Apr-14 20:00N 49°35' W 000°10'510.6
2018-Apr-14 19:30N 49°31' W 000°04'611.9
2018-Apr-14 19:00N 49°29' E 000°04'4 7.5
2018-Apr-14 18:29N 49°29' E 000°10'0 0.0
2018-Apr-14 17:59N 49°29' E 000°10'1 2.3
2018-Apr-14 17:28N 49°29' E 000°12'0 0.0
2018-Apr-14 17:00N 49°29' E 000°12'0 0.0
2018-Apr-14 16:31N 49°29' E 000°12'0 0.0
2018-Apr-14 16:01N 49°29' E 000°12'0 0.0
2018-Apr-14 15:31N 49°29' E 000°12'0 0.0
2018-Apr-14 15:01N 49°29' E 000°12'0 0.0
2018-Apr-14 14:30N 49°29' E 000°12'0 0.0
2018-Apr-14 14:01N 49°29' E 000°12'0 0.0
2018-Apr-14 13:31N 49°29' E 000°12'0 0.0
2018-Apr-14 13:01N 49°29' E 000°12'0 0.0
2018-Apr-14 12:30N 49°29' E 000°12'0 0.0
2018-Apr-14 12:00N 49°29' E 000°12'0 0.0
2018-Apr-14 11:31N 49°29' E 000°12'0 0.0
2018-Apr-14 11:01N 49°29' E 000°12'0 0.0
2018-Apr-14 10:31N 49°29' E 000°12'0 0.0
2018-Apr-14 10:01N 49°29' E 000°12'0 0.0
2018-Apr-14 09:31N 49°29' E 000°12'0 0.0
2018-Apr-14 09:01N 49°29' E 000°12'0 0.0
2018-Apr-14 08:31N 49°29' E 000°12'0 0.0
2018-Apr-14 08:01N 49°29' E 000°12'0 0.0
2018-Apr-14 07:30N 49°29' E 000°12'0 0.0
2018-Apr-14 07:01N 49°29' E 000°12'0 0.0
2018-Apr-14 06:30N 49°29' E 000°12'0 0.0
2018-Apr-14 06:01N 49°29' E 000°12'0 0.0
2018-Apr-14 05:30N 49°29' E 000°12'0 0.0
2018-Apr-14 05:01N 49°29' E 000°12'0 0.0
2018-Apr-14 04:31N 49°29' E 000°12'0 0.0
2018-Apr-14 04:01N 49°29' E 000°12'0 0.0
2018-Apr-14 03:31N 49°29' E 000°12'0 0.0
2018-Apr-14 03:01N 49°29' E 000°12'0 0.0
2018-Apr-14 02:31N 49°29' E 000°12'0 0.0
2018-Apr-14 02:00N 49°29' E 000°12'0 0.0
2018-Apr-14 01:30N 49°29' E 000°12'0 0.0
2018-Apr-14 01:01N 49°29' E 000°12'0 0.0
2018-Apr-14 00:31N 49°29' E 000°12'0 0.0
2018-Apr-14 00:00N 49°29' E 000°12'0 0.0
2018-Apr-13 23:30N 49°29' E 000°12'0 0.0
2018-Apr-13 23:00N 49°29' E 000°12'0 0.0
2018-Apr-13 22:31N 49°29' E 000°12'0 0.0
2018-Apr-13 22:01N 49°29' E 000°12'1 2.1
2018-Apr-13 21:31N 49°29' E 000°11'1 1.3
2018-Apr-13 21:01N 49°28' E 000°10'4 8.8
2018-Apr-13 20:30N 49°30' E 000°03'510.3
2018-Apr-13 20:01N 49°31' W 000°04'5 9.9
2018-Apr-13 19:31N 49°33' W 000°12'4 8.2
2018-Apr-13 19:00N 49°34' W 000°17'5 9.2
2018-Apr-13 18:30N 49°36' W 000°24'611.9
2018-Apr-13 18:00N 49°38' W 000°33'611.7
2018-Apr-13 17:31N 49°40' W 000°41'5 9.8
2018-Apr-13 17:01N 49°42' W 000°48'1212.1
2018-Apr-13 16:00N 49°49' W 001°04'713.9
2018-Apr-13 15:30N 49°50' W 001°14'713.1
2018-Apr-13 15:00N 49°51' W 001°24'611.9
2018-Apr-13 14:30N 49°51' W 001°33'1211.5
2018-Apr-13 13:30N 49°52' W 001°51'510.5
2018-Apr-13 13:00N 49°52' W 001°59'510.4
2018-Apr-13 12:29N 49°53' W 002°08'2611.1
2018-Apr-13 10:08N 49°49' W 002°48'212.4
2018-Apr-13 10:00N 49°48' W 002°50'1012.7
2018-Apr-13 09:11N 49°44' W 003°05'512.9
2018-Apr-13 08:50N 49°41' W 003°11'8613.6
2018-Apr-13 02:33N 48°59' W 005°05'114.3
2018-Apr-13 02:30N 48°59' W 005°06'1714.5
2018-Apr-13 01:21N 48°49' W 005°27'514.5
2018-Apr-13 01:00N 48°47' W 005°33'3212.9
2018-Apr-12 22:33N 48°15' W 005°38'2913.5
2018-Apr-12 20:25N 47°55' W 005°06'613.6
2018-Apr-12 20:00N 47°52' W 005°00'913.0
2018-Apr-12 19:19N 47°46' W 004°49'3113.2
2018-Apr-12 16:56N 47°31' W 004°09'613.2
2018-Apr-12 16:30N 47°28' W 004°02'713.1
2018-Apr-12 15:56N 47°24' W 003°52'613.1
2018-Apr-12 15:30N 47°21' W 003°45'713.1
2018-Apr-12 15:00N 47°18' W 003°37'713.1
2018-Apr-12 14:30N 47°15' W 003°28'613.0
2018-Apr-12 14:01N 47°12' W 003°20'612.9
2018-Apr-12 13:30N 47°10' W 003°11'712.9
2018-Apr-12 13:00N 47°09' W 003°01'712.8
2018-Apr-12 12:29N 47°07' W 002°52'612.2
2018-Apr-12 12:00N 47°04' W 002°44'511.1
2018-Apr-12 11:31N 47°03' W 002°37'612.2
2018-Apr-12 11:01N 47°04' W 002°28'510.2
2018-Apr-12 10:30N 47°08' W 002°22'610.7
2018-Apr-12 09:54N 47°13' W 002°17'411.1
2018-Apr-12 09:30N 47°16' W 002°12'510.1
2018-Apr-12 09:00N 47°18' W 002°05'  

Dump ship's entire track history